createdAt,value
2018-09-03T00:00:57.410Z,4.63
2018-09-03T00:03:25.420Z,3.87
2018-09-03T00:05:53.457Z,4.40
2018-09-03T00:08:21.586Z,4.43
2018-09-03T00:10:49.644Z,3.43
2018-09-03T00:13:17.705Z,6.70
2018-09-03T00:15:45.805Z,5.93
2018-09-03T00:18:13.867Z,6.80
2018-09-03T00:20:41.893Z,4.23
2018-09-03T00:23:09.921Z,4.43
2018-09-03T00:25:38.053Z,4.10
2018-09-03T00:28:06.067Z,4.87
2018-09-03T00:30:34.078Z,4.53
2018-09-03T00:33:02.103Z,6.03
2018-09-03T00:35:30.132Z,5.73
2018-09-03T00:37:58.490Z,5.00
2018-09-03T00:40:26.491Z,5.13
2018-09-03T00:42:54.519Z,3.43
2018-09-03T00:45:22.534Z,4.07
2018-09-03T00:47:50.557Z,4.27
2018-09-03T00:50:18.606Z,6.07
2018-09-03T00:52:46.632Z,4.33
2018-09-03T00:55:14.652Z,4.77
2018-09-03T00:57:42.738Z,4.43
2018-09-03T01:00:10.791Z,4.20
2018-09-03T01:02:38.813Z,3.93
2018-09-03T01:05:06.875Z,4.47
2018-09-03T01:07:34.877Z,8.80
2018-09-03T01:10:02.988Z,4.93
2018-09-03T01:12:31.035Z,5.20
2018-09-03T01:14:59.047Z,5.73
2018-09-03T01:17:27.151Z,4.83
2018-09-03T01:19:55.188Z,8.13
2018-09-03T01:22:23.185Z,7.80
2018-09-03T01:24:51.229Z,4.53
2018-09-03T01:27:19.234Z,7.13
2018-09-03T01:29:47.240Z,8.43
2018-09-03T01:32:15.264Z,5.73
2018-09-03T01:34:43.264Z,5.60
2018-09-03T01:37:11.321Z,9.00
2018-09-03T01:39:39.330Z,6.93
2018-09-03T01:42:07.373Z,4.17
2018-09-03T01:44:35.383Z,5.07
2018-09-03T01:47:03.455Z,5.03
2018-09-03T01:49:31.465Z,5.07
2018-09-03T01:51:59.474Z,6.93
2018-09-03T01:54:27.456Z,4.13
2018-09-03T01:56:55.472Z,5.60
2018-09-03T01:59:23.509Z,10.43
2018-09-03T02:01:51.547Z,5.87
2018-09-03T02:04:19.557Z,5.73
2018-09-03T02:06:47.596Z,6.53
2018-09-03T02:09:15.572Z,6.23
2018-09-03T02:11:43.601Z,6.90
2018-09-03T02:14:11.618Z,6.80
2018-09-03T02:16:39.640Z,8.63
2018-09-03T02:19:07.637Z,6.50
2018-09-03T02:21:35.674Z,6.80
2018-09-03T02:24:03.770Z,4.57
2018-09-03T02:26:31.821Z,5.80
2018-09-03T02:28:59.953Z,5.20
2018-09-03T02:31:27.958Z,7.10
2018-09-03T02:33:55.992Z,6.90
2018-09-03T02:36:23.986Z,6.87
2018-09-03T02:38:52.037Z,6.43
2018-09-03T02:41:20.025Z,7.60
2018-09-03T02:43:48.044Z,6.60
2018-09-03T02:46:16.117Z,5.97
2018-09-03T02:48:44.121Z,8.03
2018-09-03T02:51:12.152Z,6.13
2018-09-03T02:53:40.277Z,5.00
2018-09-03T02:56:08.324Z,7.17
2018-09-03T02:58:36.357Z,6.87
2018-09-03T03:01:04.441Z,6.70
2018-09-03T03:03:32.550Z,4.07
2018-09-03T03:06:00.537Z,5.20
2018-09-03T03:08:28.533Z,3.93
2018-09-03T03:10:56.568Z,5.07
2018-09-03T03:13:24.585Z,5.33
2018-09-03T03:15:52.612Z,6.70
2018-09-03T03:18:20.633Z,8.63
2018-09-03T03:20:48.761Z,6.17
2018-09-03T03:23:16.888Z,5.27
2018-09-03T03:25:44.876Z,5.30
2018-09-03T03:28:12.907Z,5.57
2018-09-03T03:30:40.957Z,5.67
2018-09-03T03:33:09.003Z,7.10
2018-09-03T03:35:37.061Z,5.27
2018-09-03T03:38:05.218Z,5.30
2018-09-03T03:40:33.563Z,7.27
2018-09-03T03:43:01.562Z,9.83
2018-09-03T03:45:29.730Z,10.03
2018-09-03T03:47:57.745Z,11.30
2018-09-03T03:50:25.852Z,13.93
2018-09-03T03:52:53.884Z,10.80
2018-09-03T03:55:21.921Z,7.53
2018-09-03T03:57:49.975Z,7.83
2018-09-03T04:00:18.005Z,7.33
2018-09-03T04:02:46.012Z,7.20
2018-09-03T04:05:14.089Z,6.17
2018-09-03T04:07:42.113Z,15.20
2018-09-03T04:10:10.179Z,6.47
2018-09-03T04:12:38.228Z,7.07
2018-09-03T04:15:06.266Z,6.63
2018-09-03T04:17:34.384Z,5.50
2018-09-03T04:20:02.424Z,5.33
2018-09-03T04:22:30.732Z,8.00
2018-09-03T04:24:58.782Z,7.30
2018-09-03T04:27:26.829Z,8.00
2018-09-03T04:29:54.882Z,6.50
2018-09-03T04:32:22.877Z,5.63
2018-09-03T04:34:50.941Z,5.90
2018-09-03T04:37:19.001Z,5.27
2018-09-03T04:39:47.037Z,7.17
2018-09-03T04:42:15.089Z,11.23
2018-09-03T04:44:43.129Z,5.63
2018-09-03T04:47:11.163Z,11.17
2018-09-03T04:49:39.180Z,7.63
2018-09-03T04:52:07.474Z,8.97
2018-09-03T04:54:35.581Z,9.87
2018-09-03T04:57:03.828Z,9.03
2018-09-03T04:59:31.899Z,9.17
2018-09-03T05:01:59.912Z,8.33
2018-09-03T05:04:27.966Z,6.03
2018-09-03T05:06:56.046Z,8.07
2018-09-03T05:09:24.122Z,11.03
2018-09-03T05:11:52.258Z,12.10
2018-09-03T05:14:20.301Z,36.30
2018-09-03T05:16:48.355Z,61.83
2018-09-03T05:19:16.405Z,31.87
2018-09-03T05:21:44.458Z,50.10
2018-09-03T05:24:12.504Z,62.23
2018-09-03T05:26:40.541Z,31.63
2018-09-03T05:29:08.609Z,47.20
2018-09-03T05:31:36.690Z,30.57
2018-09-03T05:34:04.969Z,35.17
2018-09-03T05:36:33.076Z,26.03
2018-09-03T05:39:01.107Z,22.07
2018-09-03T05:41:29.133Z,24.20
2018-09-03T05:43:57.244Z,17.87
2018-09-03T05:46:25.320Z,17.63
2018-09-03T05:48:53.378Z,17.03
2018-09-03T05:51:21.461Z,14.80
2018-09-03T05:53:49.491Z,16.90
2018-09-03T05:56:17.537Z,10.83
2018-09-03T05:58:45.595Z,12.80
2018-09-03T06:01:13.642Z,9.57
2018-09-03T06:03:41.785Z,7.83
2018-09-03T06:06:09.840Z,10.93
2018-09-03T06:08:37.856Z,7.70
2018-09-03T06:11:06.051Z,8.87
2018-09-03T06:13:34.113Z,6.60
2018-09-03T06:16:02.277Z,6.70
2018-09-03T06:18:30.271Z,8.23
2018-09-03T06:20:58.284Z,7.03
2018-09-03T06:23:26.333Z,7.17
2018-09-03T06:25:54.380Z,7.40
2018-09-03T06:28:22.429Z,7.83
2018-09-03T06:30:50.483Z,7.93
2018-09-03T06:33:18.518Z,8.93
2018-09-03T06:35:46.610Z,5.93
2018-09-03T06:38:14.572Z,5.97
2018-09-03T06:40:42.633Z,9.07
2018-09-03T06:43:10.663Z,6.40
2018-09-03T06:45:38.738Z,4.03
2018-09-03T06:48:06.848Z,7.20
2018-09-03T06:50:34.867Z,8.80
2018-09-03T06:53:02.890Z,12.50
2018-09-03T06:55:31.005Z,6.23
2018-09-03T06:57:59.032Z,9.03
2018-09-03T07:00:27.085Z,7.00
2018-09-03T07:02:55.096Z,7.40
2018-09-03T07:05:23.161Z,9.07
2018-09-03T07:07:51.351Z,13.03
2018-09-03T07:10:19.482Z,7.50
2018-09-03T07:12:47.601Z,9.73
2018-09-03T07:15:15.612Z,8.77
2018-09-03T07:17:43.654Z,10.27
2018-09-03T07:20:11.732Z,6.93
2018-09-03T07:22:39.753Z,5.67
2018-09-03T07:25:07.909Z,7.23
2018-09-03T07:27:35.921Z,9.37
2018-09-03T07:30:04.001Z,8.97
2018-09-03T07:32:32.160Z,10.47
2018-09-03T07:35:00.184Z,11.30
2018-09-03T07:37:28.212Z,6.30
2018-09-03T07:39:56.220Z,6.10
2018-09-03T07:42:24.449Z,7.13
2018-09-03T07:44:52.513Z,10.47
2018-09-03T07:47:20.653Z,13.80
2018-09-03T07:49:48.692Z,8.27
2018-09-03T07:52:16.792Z,12.80
2018-09-03T07:54:44.809Z,6.90
2018-09-03T07:57:12.865Z,9.03
2018-09-03T07:59:40.900Z,8.73
2018-09-03T08:02:09.043Z,5.90
2018-09-03T08:04:37.132Z,12.83
2018-09-03T08:07:05.171Z,12.30
2018-09-03T08:09:33.457Z,9.17
2018-09-03T08:12:01.843Z,14.40
2018-09-03T08:14:29.960Z,9.83
2018-09-03T08:16:58.016Z,11.13
2018-09-03T08:19:26.199Z,11.87
2018-09-03T08:21:54.215Z,10.23
2018-09-03T08:24:22.280Z,9.93
2018-09-03T08:26:50.298Z,13.43
2018-09-03T08:29:18.330Z,10.70
2018-09-03T08:31:46.354Z,11.13
2018-09-03T08:34:14.402Z,11.67
2018-09-03T08:36:42.454Z,10.53
2018-09-03T08:39:10.539Z,13.17
2018-09-03T08:41:38.555Z,8.87
2018-09-03T08:44:06.653Z,10.90
2018-09-03T08:46:34.690Z,8.87
2018-09-03T08:49:02.769Z,8.83
2018-09-03T08:51:30.811Z,11.23
2018-09-03T08:53:58.955Z,10.60
2018-09-03T08:56:26.958Z,11.40
2018-09-03T08:58:55.067Z,12.63
2018-09-03T09:01:23.076Z,7.07
2018-09-03T09:03:51.356Z,11.07
2018-09-03T09:06:19.396Z,14.43
2018-09-03T09:08:54.101Z,12.13
2018-09-03T09:11:22.124Z,11.30
2018-09-03T09:13:50.154Z,11.33
2018-09-03T09:16:18.465Z,15.57
2018-09-03T09:18:46.496Z,12.17
2018-09-03T09:21:14.580Z,17.50
2018-09-03T09:23:42.561Z,12.43
2018-09-03T09:26:10.597Z,12.30
2018-09-03T09:28:38.616Z,14.17
2018-09-03T09:31:06.644Z,16.17
2018-09-03T09:33:34.756Z,13.93
2018-09-03T09:36:02.754Z,19.43
2018-09-03T09:38:30.789Z,19.30
2018-09-03T09:40:58.861Z,19.10
2018-09-03T09:43:27.113Z,19.17
2018-09-03T09:45:55.161Z,20.63
2018-09-03T09:48:23.241Z,13.97
2018-09-03T09:50:51.264Z,19.13
2018-09-03T09:53:19.309Z,16.27
2018-09-03T09:55:47.379Z,18.50
2018-09-03T09:58:15.473Z,15.80
2018-09-03T10:00:43.566Z,19.13
2018-09-03T10:03:11.600Z,17.90
2018-09-03T10:05:39.636Z,14.13
2018-09-03T10:08:07.840Z,15.93
2018-09-03T10:10:35.898Z,16.17
2018-09-03T10:13:04.166Z,17.47
2018-09-03T10:15:32.327Z,11.97
2018-09-03T10:18:00.418Z,13.37
2018-09-03T10:20:28.496Z,13.70
2018-09-03T10:22:56.587Z,17.07
2018-09-03T10:25:24.707Z,12.33
2018-09-03T10:27:52.754Z,16.33
2018-09-03T10:30:20.830Z,18.77
2018-09-03T10:32:48.966Z,18.27
2018-09-03T10:35:17.016Z,12.03
2018-09-03T10:37:45.083Z,13.03
2018-09-03T10:40:13.176Z,15.20
2018-09-03T10:42:41.225Z,12.00
2018-09-03T10:45:09.407Z,12.53
2018-09-03T10:47:37.607Z,15.33
2018-09-03T10:50:05.777Z,13.40
2018-09-03T10:52:33.951Z,18.93
2018-09-03T10:55:02.848Z,18.03
2018-09-03T10:57:32.002Z,14.80
2018-09-03T11:00:00.041Z,14.67
2018-09-03T11:02:28.061Z,14.70
2018-09-03T11:04:56.169Z,16.17
2018-09-03T11:07:24.263Z,18.27
2018-09-03T11:09:52.336Z,19.90
2018-09-03T11:12:20.415Z,13.80
2018-09-03T11:14:48.449Z,14.43
2018-09-03T11:17:16.489Z,11.83
2018-09-03T11:19:45.445Z,14.37
2018-09-03T11:22:13.503Z,16.40
2018-09-03T11:24:43.483Z,16.37
2018-09-03T11:27:11.661Z,12.77
2018-09-03T11:29:39.697Z,11.17
2018-09-03T11:32:07.798Z,11.73
2018-09-03T11:34:35.844Z,12.53
2018-09-03T11:37:03.896Z,14.70
2018-09-03T11:39:31.985Z,13.93
2018-09-03T11:42:00.076Z,15.53
2018-09-03T11:44:28.123Z,11.87
2018-09-03T11:46:56.169Z,15.47
2018-09-03T11:49:24.295Z,15.20
2018-09-03T11:51:52.325Z,15.50
2018-09-03T11:54:20.664Z,17.10
2018-09-03T11:56:48.701Z,11.13
2018-09-03T11:59:16.763Z,16.70
2018-09-03T12:01:44.818Z,15.00
2018-09-03T12:04:12.877Z,14.60
2018-09-03T12:06:42.327Z,15.77
2018-09-03T12:09:10.332Z,10.03
2018-09-03T12:11:38.394Z,17.23
2018-09-03T12:14:06.550Z,9.50
2018-09-03T12:16:34.589Z,15.00
2018-09-03T12:19:02.740Z,13.40
2018-09-03T12:21:30.781Z,17.30
2018-09-03T12:23:58.840Z,12.30
2018-09-03T12:26:26.869Z,17.03
2018-09-03T12:28:54.949Z,13.30
2018-09-03T12:31:23.036Z,16.03
2018-09-03T12:33:51.082Z,12.47
2018-09-03T12:36:19.189Z,13.87
2018-09-03T12:38:47.226Z,16.77
2018-09-03T12:41:15.428Z,19.13
2018-09-03T12:43:43.564Z,21.30
2018-09-03T12:46:11.613Z,18.00
2018-09-03T12:48:39.701Z,15.00
2018-09-03T12:51:07.888Z,18.43
2018-09-03T12:53:35.925Z,19.63
2018-09-03T12:56:04.042Z,21.93
2018-09-03T12:58:32.171Z,22.30
2018-09-03T13:01:00.192Z,17.33
2018-09-03T13:03:28.250Z,17.10
2018-09-03T13:05:56.317Z,20.23
2018-09-03T13:08:24.415Z,20.13
2018-09-03T13:10:52.521Z,19.73
2018-09-03T13:13:20.596Z,22.67
2018-09-03T13:15:48.665Z,12.63
2018-09-03T13:18:16.682Z,29.20
2018-09-03T13:20:44.852Z,28.33
2018-09-03T13:23:14.480Z,27.83
2018-09-03T13:25:42.582Z,25.67
2018-09-03T13:28:10.633Z,14.87
2018-09-03T13:30:38.697Z,25.80
2018-09-03T13:33:06.689Z,30.57
2018-09-03T13:35:34.722Z,32.57
2018-09-03T13:38:02.841Z,32.20
2018-09-03T13:40:30.931Z,22.50
2018-09-03T13:42:58.950Z,28.13
2018-09-03T13:45:26.978Z,25.40
2018-09-03T13:47:55.040Z,29.30
2018-09-03T13:50:23.057Z,34.00
2018-09-03T13:52:51.105Z,32.83
2018-09-03T13:55:19.176Z,34.53
2018-09-03T13:57:47.204Z,24.17
2018-09-03T14:00:15.237Z,24.73
2018-09-03T14:02:43.288Z,27.20
2018-09-03T14:05:11.337Z,24.13
2018-09-03T14:07:39.388Z,21.60
2018-09-03T14:10:07.525Z,26.40
2018-09-03T14:12:35.536Z,25.73
2018-09-03T14:15:03.803Z,20.63
2018-09-03T14:17:32.047Z,19.37
2018-09-03T14:20:00.303Z,21.77
2018-09-03T14:22:28.510Z,22.47
2018-09-03T14:24:56.595Z,21.07
2018-09-03T14:27:24.669Z,21.67
2018-09-03T14:29:52.721Z,25.63
2018-09-03T14:32:20.838Z,24.73
2018-09-03T14:34:48.917Z,25.00
2018-09-03T14:37:16.964Z,20.63
2018-09-03T14:39:45.100Z,29.90
2018-09-03T14:42:13.171Z,34.20
2018-09-03T14:44:41.204Z,31.77
2018-09-03T14:47:09.339Z,30.53
2018-09-03T14:49:37.622Z,33.10
2018-09-03T14:52:05.576Z,29.57
2018-09-03T14:54:33.620Z,23.47
2018-09-03T14:57:01.706Z,30.83
2018-09-03T14:59:29.732Z,27.83
2018-09-03T15:01:57.807Z,29.27
2018-09-03T15:04:26.093Z,25.77
2018-09-03T15:06:54.182Z,23.20
2018-09-03T15:09:22.220Z,22.93
2018-09-03T15:11:50.297Z,27.80
2018-09-03T15:14:18.495Z,31.40
2018-09-03T15:16:46.573Z,24.70
2018-09-03T15:19:14.745Z,26.23
2018-09-03T15:21:42.800Z,25.57
2018-09-03T15:24:10.889Z,29.77
2018-09-03T15:26:39.177Z,25.50
2018-09-03T15:29:07.177Z,29.97
2018-09-03T15:31:35.250Z,25.27
2018-09-03T15:34:03.333Z,29.03
2018-09-03T15:36:31.476Z,29.10
2018-09-03T15:39:00.678Z,24.80
2018-09-03T15:41:28.793Z,27.10
2018-09-03T15:43:56.905Z,27.50
2018-09-03T15:46:24.953Z,26.13
2018-09-03T15:48:53.029Z,32.50
2018-09-03T15:51:21.082Z,29.90
2018-09-03T15:53:49.174Z,27.40
2018-09-03T15:56:17.193Z,33.67
2018-09-03T15:58:45.290Z,36.80
2018-09-03T16:01:13.319Z,39.13
2018-09-03T16:03:41.402Z,38.20
2018-09-03T16:06:09.490Z,36.80
2018-09-03T16:08:37.540Z,33.13
2018-09-03T16:11:05.619Z,36.53
2018-09-03T16:13:34.186Z,36.77
2018-09-03T16:16:02.299Z,38.93
2018-09-03T16:18:30.455Z,33.83
2018-09-03T16:20:58.622Z,39.60
2018-09-03T16:23:26.654Z,36.03
2018-09-03T16:25:54.769Z,28.67
2018-09-03T16:28:22.907Z,33.37
2018-09-03T16:30:51.039Z,28.07
2018-09-03T16:33:19.080Z,32.20
2018-09-03T16:35:47.381Z,30.30
2018-09-03T16:38:15.398Z,36.53
2018-09-03T16:40:43.500Z,31.83
2018-09-03T16:43:11.577Z,32.57
2018-09-03T16:45:39.641Z,32.87
2018-09-03T16:48:07.781Z,31.47
2018-09-03T16:50:35.874Z,30.57
2018-09-03T16:53:04.064Z,31.90
2018-09-03T16:55:32.130Z,32.03
2018-09-03T16:58:00.382Z,36.03
2018-09-03T17:00:28.464Z,31.43
2018-09-03T17:02:56.582Z,34.37
2018-09-03T17:05:24.841Z,36.37
2018-09-03T17:07:53.811Z,34.23
2018-09-03T17:10:21.944Z,36.20
2018-09-03T17:12:50.107Z,32.83
2018-09-03T17:15:18.210Z,31.60
2018-09-03T17:17:46.290Z,30.77
2018-09-03T17:20:15.033Z,38.70
2018-09-03T17:22:43.217Z,34.77
2018-09-03T17:25:11.307Z,35.10
2018-09-03T17:27:39.454Z,33.13
2018-09-03T17:30:08.561Z,39.27
2018-09-03T17:32:36.705Z,36.27
2018-09-03T17:35:04.905Z,44.63
2018-09-03T17:37:33.290Z,37.27
2018-09-03T17:40:01.405Z,35.87
2018-09-03T17:42:29.454Z,34.83
2018-09-03T17:44:57.584Z,32.23
2018-09-03T17:47:26.461Z,37.10
2018-09-03T17:49:54.572Z,36.10
2018-09-03T17:52:22.593Z,42.70
2018-09-03T17:54:50.708Z,29.33
2018-09-03T17:57:18.809Z,33.97
2018-09-03T17:59:46.928Z,39.73
2018-09-03T18:02:15.183Z,34.83
2018-09-03T18:04:43.431Z,32.03
2018-09-03T18:07:11.496Z,33.57
2018-09-03T18:09:39.581Z,31.60
2018-09-03T18:12:07.672Z,36.83
2018-09-03T18:14:35.794Z,30.57
2018-09-03T18:17:04.242Z,31.10
2018-09-03T18:19:32.498Z,32.17
2018-09-03T18:22:00.541Z,34.90
2018-09-03T18:24:28.646Z,20.73
2018-09-03T18:26:56.705Z,33.27
2018-09-03T18:29:24.796Z,22.87
2018-09-03T18:31:52.897Z,27.17
2018-09-03T18:34:21.126Z,27.53
2018-09-03T18:36:49.221Z,23.60
2018-09-03T18:39:17.525Z,32.73
2018-09-03T18:41:45.688Z,32.93
2018-09-03T18:44:13.796Z,25.90
2018-09-03T18:46:41.937Z,37.90
2018-09-03T18:49:10.191Z,36.13
2018-09-03T18:51:38.378Z,27.33
2018-09-03T18:54:06.382Z,23.03
2018-09-03T18:56:34.885Z,32.03
2018-09-03T18:59:03.264Z,38.67
2018-09-03T19:01:31.378Z,36.27
2018-09-03T19:03:59.913Z,25.67
2018-09-03T19:06:28.031Z,25.07
2018-09-03T19:08:56.465Z,22.67
2018-09-03T19:11:25.045Z,28.43
2018-09-03T19:13:53.629Z,25.73
2018-09-03T19:16:21.725Z,23.53
2018-09-03T19:18:50.179Z,29.40
2018-09-03T19:21:18.292Z,31.77
2018-09-03T19:23:46.735Z,26.63
2018-09-03T19:26:14.881Z,30.97
2018-09-03T19:28:42.937Z,30.30
2018-09-03T19:31:10.981Z,26.63
2018-09-03T19:33:39.229Z,26.73
2018-09-03T19:36:07.478Z,25.67
2018-09-03T19:38:35.594Z,28.23
2018-09-03T19:41:03.676Z,32.23
2018-09-03T19:43:31.724Z,29.63
2018-09-03T19:45:59.846Z,43.77
2018-09-03T19:48:28.059Z,43.73
2018-09-03T19:50:56.190Z,29.13
2018-09-03T19:53:24.354Z,27.87
2018-09-03T19:55:52.499Z,25.80
2018-09-03T19:58:20.621Z,38.77
2018-09-03T20:00:48.908Z,25.17
2018-09-03T20:03:16.956Z,24.00
2018-09-03T20:05:45.127Z,23.13
2018-09-03T20:08:13.236Z,26.23
2018-09-03T20:10:41.475Z,28.80
2018-09-03T20:13:09.547Z,26.07
2018-09-03T20:15:37.665Z,30.97
2018-09-03T20:18:05.767Z,33.90
2018-09-03T20:20:33.850Z,34.37
2018-09-03T20:23:02.096Z,36.73
2018-09-03T20:25:30.313Z,27.70
2018-09-03T20:27:58.428Z,33.30
2018-09-03T20:30:27.012Z,33.97
2018-09-03T20:32:55.031Z,38.13
2018-09-03T20:35:23.458Z,30.53
2018-09-03T20:37:51.513Z,25.87
2018-09-03T20:40:19.627Z,24.87
2018-09-03T20:42:47.707Z,38.17
2018-09-03T20:45:15.725Z,37.40
2018-09-03T20:47:43.837Z,31.60
2018-09-03T20:50:12.069Z,28.80
2018-09-03T20:52:40.161Z,28.67
2018-09-03T20:55:08.774Z,37.73
2018-09-03T20:57:37.031Z,32.20
2018-09-03T21:00:06.229Z,30.20
2018-09-03T21:02:34.616Z,24.53
2018-09-03T21:05:02.974Z,22.90
2018-09-03T21:07:31.298Z,27.27
2018-09-03T21:09:59.504Z,36.07
2018-09-03T21:12:27.614Z,28.10
2018-09-03T21:14:55.704Z,30.37
2018-09-03T21:17:23.766Z,27.83
2018-09-03T21:19:51.842Z,23.17
2018-09-03T21:22:19.965Z,22.53
2018-09-03T21:24:48.157Z,24.37
2018-09-03T21:27:16.177Z,32.67
2018-09-03T21:29:44.342Z,35.57
2018-09-03T21:32:12.475Z,26.37
2018-09-03T21:37:17.456Z,28.87
2018-09-03T21:39:45.680Z,23.43
2018-09-03T21:42:13.754Z,24.33
2018-09-03T21:44:41.957Z,25.67
2018-09-03T21:47:10.097Z,28.57
2018-09-03T21:49:38.228Z,35.83
2018-09-03T21:52:06.342Z,35.47
2018-09-03T21:54:34.475Z,29.33
2018-09-03T21:57:02.662Z,25.73
2018-09-03T21:59:31.074Z,35.80
2018-09-03T22:01:59.290Z,39.23
2018-09-03T22:04:27.396Z,40.10
2018-09-03T22:06:55.578Z,33.73
2018-09-03T22:09:23.739Z,23.47
2018-09-03T22:11:51.870Z,25.63
2018-09-03T22:14:20.296Z,25.30
2018-09-03T22:16:48.444Z,26.93
2018-09-03T22:19:16.561Z,23.37
2018-09-03T22:21:44.693Z,37.83
2018-09-03T22:24:12.773Z,46.77
2018-09-03T22:26:40.846Z,37.63
2018-09-03T22:29:08.844Z,37.27
2018-09-03T22:31:36.984Z,31.13
2018-09-03T22:34:05.070Z,32.63
2018-09-03T22:36:33.104Z,40.30
2018-09-03T22:39:01.126Z,28.97
2018-09-03T22:41:29.210Z,32.57
2018-09-03T22:43:57.248Z,36.17
2018-09-03T22:46:25.291Z,25.60
2018-09-03T22:48:53.353Z,36.80
2018-09-03T22:51:21.404Z,38.47
2018-09-03T22:53:49.540Z,37.93
2018-09-03T22:56:17.578Z,39.20
2018-09-03T22:58:45.631Z,36.53
2018-09-03T23:01:13.670Z,33.67
2018-09-03T23:03:41.733Z,31.67
2018-09-03T23:06:09.792Z,33.40
2018-09-03T23:08:37.912Z,25.40
2018-09-03T23:11:06.032Z,32.57
2018-09-03T23:13:40.824Z,33.80
2018-09-03T23:16:08.883Z,33.23
2018-09-03T23:18:36.989Z,35.37
2018-09-03T23:21:05.101Z,31.20
2018-09-03T23:23:33.150Z,44.77
2018-09-03T23:26:01.212Z,33.63
2018-09-03T23:28:29.264Z,29.50
2018-09-03T23:30:57.308Z,29.20
2018-09-03T23:33:25.336Z,31.17
2018-09-03T23:35:53.352Z,30.07
2018-09-03T23:38:21.365Z,27.57
2018-09-03T23:40:49.384Z,31.23
2018-09-03T23:43:17.408Z,28.27
2018-09-03T23:45:45.472Z,29.70
2018-09-03T23:48:13.538Z,25.67
2018-09-03T23:50:41.617Z,28.13
2018-09-03T23:53:09.673Z,29.97
2018-09-03T23:55:37.711Z,34.63
2018-09-03T23:58:05.798Z,34.37
